Time;durP1;ratioP1;P1;durP2;ratioP2;P2;SDS_P1;SDS_P2;PMS_P1;PMS_P2;Temp;Humidity;BMP_temperature;BMP_pressure;BME280_temperature;BME280_humidity;BME280_pressure;Samples;Min_cycle;Max_cycle;Signal;HPM_P1;HPM_P2
2021/04/23 00:03:05;;;;;;;1.43;0.77;;;;;;;3.97;65.32;101113.75;6027753;29;20209;-72
2021/04/23 00:06:13;;;;;;;1.03;1.03;;;;;;;3.99;65.29;101106.34;6027880;29;20484;-71
2021/04/23 00:09:18;;;;;;;2.40;0.90;;;;;;;4.12;65.29;101115.63;6011652;29;20215;-71
2021/04/23 00:12:21;;;;;;;0.77;0.77;;;;;;;4.03;64.38;101123.91;6026871;29;20195;-71
2021/04/23 00:15:25;;;;;;;0.70;0.70;;;;;;;3.96;65.07;101112.91;6028197;29;20239;-71
2021/04/23 00:18:33;;;;;;;0.90;0.90;;;;;;;3.95;64.64;101105.84;6027731;29;20225;-71
2021/04/23 00:21:36;;;;;;;0.80;0.80;;;;;;;4.02;64.73;101116.81;6027719;29;20195;-70
2021/04/23 00:24:40;;;;;;;0.90;0.90;;;;;;;3.99;64.43;101117.13;6027476;29;20290;-71
2021/04/23 00:27:43;;;;;;;0.70;0.70;;;;;;;3.94;64.22;101114.09;6026582;29;20525;-71
2021/04/23 00:30:49;;;;;;;0.70;0.70;;;;;;;3.94;63.00;101119.50;6026409;29;20529;-71
2021/04/23 00:33:52;;;;;;;0.80;0.80;;;;;;;4.04;63.23;101126.44;6027644;29;20268;-71
2021/04/23 00:36:55;;;;;;;0.80;0.80;;;;;;;3.96;62.39;101114.75;6026397;29;20454;-72
2021/04/23 00:39:58;;;;;;;0.90;0.90;;;;;;;3.85;62.95;101121.34;6025611;29;20479;-71
2021/04/23 00:43:03;;;;;;;1.37;0.87;;;;;;;3.83;62.77;101127.94;6026294;29;20437;-70
2021/04/23 00:46:08;;;;;;;1.00;1.00;;;;;;;3.75;62.72;101137.69;6026747;29;20222;-71
2021/04/23 00:49:12;;;;;;;0.93;0.90;;;;;;;4.02;62.92;101123.06;6027302;29;20203;-71
2021/04/23 00:52:16;;;;;;;0.80;0.80;;;;;;;3.83;62.98;101127.94;6010863;29;20278;-71
2021/04/23 00:55:19;;;;;;;0.83;0.83;;;;;;;3.68;64.03;101120.47;6026761;29;20240;-70
2021/04/23 00:58:24;;;;;;;0.73;0.73;;;;;;;3.69;64.43;101127.56;6026857;29;20201;-71
2021/04/23 01:01:31;;;;;;;2.10;1.00;;;;;;;3.60;64.17;101133.94;6025911;29;20195;-70
2021/04/23 01:04:34;;;;;;;0.93;0.93;;;;;;;3.66;63.43;101136.00;6026261;29;20240;-71
2021/04/23 01:07:42;;;;;;;2.00;0.73;;;;;;;3.25;64.00;101052.44;6026906;29;20195;-71
2021/04/23 01:10:46;;;;;;;1.30;0.80;;;;;;;3.59;64.79;101132.28;6026859;29;20200;-71
2021/04/23 01:13:50;;;;;;;0.93;0.93;;;;;;;3.56;64.80;101127.19;6025456;29;20262;-71
2021/04/23 01:16:55;;;;;;;0.80;0.80;;;;;;;3.31;65.16;101128.13;6026526;29;20199;-71
2021/04/23 01:19:58;;;;;;;3.40;0.90;;;;;;;3.27;65.25;101142.94;6025319;29;20195;-71
2021/04/23 01:23:02;;;;;;;0.90;0.90;;;;;;;3.27;65.32;101136.69;6026336;29;20194;-71
2021/04/23 01:26:08;;;;;;;1.90;0.90;;;;;;;2.60;65.59;101045.94;6026487;29;20222;-71
2021/04/23 01:29:14;;;;;;;0.77;0.77;;;;;;;3.40;65.87;101140.63;6026228;29;20282;-72
2021/04/23 01:32:17;;;;;;;0.80;0.80;;;;;;;3.44;65.32;101128.50;6026428;29;20227;-71
2021/04/23 01:35:23;;;;;;;0.77;0.70;;;;;;;3.26;65.43;101141.28;6026328;29;20199;-71
2021/04/23 01:38:28;;;;;;;1.37;0.70;;;;;;;3.33;64.95;101142.31;6024978;29;20194;-72
2021/04/23 01:41:31;;;;;;;1.80;0.87;;;;;;;3.28;64.93;101150.03;6024911;29;20474;-70
2021/04/23 01:44:35;;;;;;;3.30;0.90;;;;;;;3.29;65.23;101150.88;6024870;29;20361;-71
2021/04/23 01:47:39;;;;;;;0.90;0.90;;;;;;;3.27;65.04;101136.69;6025779;29;20194;-70
2021/04/23 01:50:42;;;;;;;0.77;0.77;;;;;;;3.42;63.87;101135.91;6025502;29;20202;-71
2021/04/23 01:53:46;;;;;;;1.60;1.00;;;;;;;3.34;64.51;101143.97;6024674;29;20485;-71
2021/04/23 01:56:51;;;;;;;0.93;0.93;;;;;;;3.22;64.42;101139.88;6025961;29;20196;-71
2021/04/23 01:59:55;;;;;;;3.27;1.10;;;;;;;3.21;65.58;101148.97;6009462;29;20209;-70
2021/04/23 02:03:04;;;;;;;1.57;1.00;;;;;;;2.98;64.62;101154.09;6025450;29;20277;-70
2021/04/23 02:06:09;;;;;;;0.90;0.90;;;;;;;3.13;64.52;101144.38;6024938;29;20475;-71
2021/04/23 02:09:13;;;;;;;0.90;0.80;;;;;;;3.01;65.30;101158.31;6025328;29;20195;-71
2021/04/23 02:12:17;;;;;;;1.57;1.03;;;;;;;3.10;64.83;101162.75;6024451;29;20502;-71
2021/04/23 02:15:22;;;;;;;0.80;0.80;;;;;;;2.99;65.10;101154.94;6025602;29;20228;-71
2021/04/23 02:18:26;;;;;;;1.40;1.00;;;;;;;2.98;64.90;101164.88;6025657;29;20272;-70
2021/04/23 02:21:30;;;;;;;1.57;1.00;;;;;;;2.93;65.10;101158.25;6024234;29;20529;-70
2021/04/23 02:24:45;;;;;;;1.20;1.10;;;;;;;2.94;66.21;101157.28;6024502;29;20201;-70
2021/04/23 02:27:49;;;;;;;1.00;1.00;;;;;;;3.10;66.55;101151.97;6025200;29;20191;-71
2021/04/23 02:30:57;;;;;;;1.33;0.93;;;;;;;2.86;65.79;101154.53;6025169;29;20243;-71
2021/04/23 02:34:05;;;;;;;1.70;1.00;;;;;;;2.89;66.96;101165.00;6025365;29;20269;-71
2021/04/23 02:37:09;;;;;;;1.03;1.03;;;;;;;2.86;67.03;101165.31;6025426;29;20236;-71
2021/04/23 02:40:16;;;;;;;1.40;0.90;;;;;;;2.94;66.17;101160.81;6025037;29;20225;-71
2021/04/23 02:43:25;;;;;;;1.20;1.20;;;;;;;2.64;66.82;101152.38;6025330;29;20243;-70
2021/04/23 02:46:28;;;;;;;1.57;0.87;;;;;;;2.76;66.70;101159.19;6024018;29;20574;-71
2021/04/23 02:49:32;;;;;;;0.93;0.93;;;;;;;2.68;67.07;101167.22;6023847;29;20268;-70
2021/04/23 02:52:35;;;;;;;1.50;1.00;;;;;;;2.66;67.23;101163.84;6024962;29;20194;-71
2021/04/23 02:55:40;;;;;;;0.90;0.90;;;;;;;2.58;67.55;101166.47;6025190;29;20204;-71
2021/04/23 02:58:43;;;;;;;1.00;1.00;;;;;;;2.40;67.42;101140.44;6025319;29;20201;-71
2021/04/23 03:01:50;;;;;;;1.00;1.00;;;;;;;2.34;67.28;101164.41;6024487;29;20440;-71
2021/04/23 03:04:54;;;;;;;1.10;1.10;;;;;;;2.51;67.72;101172.50;6029223;29;20250;-71
2021/04/23 03:07:58;;;;;;;0.80;0.80;;;;;;;2.59;67.19;101178.94;6028268;29;20422;-71
2021/04/23 03:11:08;;;;;;;1.00;1.00;;;;;;;2.55;66.99;101162.22;6029126;29;20193;-70
2021/04/23 03:14:11;;;;;;;1.10;1.10;;;;;;;2.45;67.31;101183.88;6029257;29;20236;-71
2021/04/23 03:17:14;;;;;;;1.03;1.03;;;;;;;2.30;67.07;101180.06;6012153;29;20221;-71
2021/04/23 03:20:20;;;;;;;0.97;0.97;;;;;;;2.17;67.69;101174.22;6029261;29;20199;-70
2021/04/23 03:23:24;;;;;;;0.97;0.90;;;;;;;2.19;67.14;101182.97;6029220;29;20193;-71
2021/04/23 03:26:28;;;;;;;0.90;0.90;;;;;;;2.17;67.45;101190.38;6027825;29;20544;-71
2021/04/23 03:29:31;;;;;;;1.07;1.07;;;;;;;2.19;67.49;101182.97;6029165;29;20197;-71
2021/04/23 03:32:34;;;;;;;0.87;0.87;;;;;;;2.15;67.88;101180.75;6029095;29;20217;-72
2021/04/23 03:35:41;;;;;;;1.30;1.00;;;;;;;2.20;67.45;101184.69;6028952;29;20237;-72
2021/04/23 03:38:47;;;;;;;0.97;0.97;;;;;;;2.12;67.79;101198.06;6027582;29;20251;-72
2021/04/23 03:41:51;;;;;;;1.63;0.90;;;;;;;2.21;67.43;101202.50;6027651;29;20200;-71
2021/04/23 03:44:55;;;;;;;0.90;0.90;;;;;;;2.23;67.18;101211.31;6027489;29;20450;-71
2021/04/23 03:47:58;;;;;;;0.90;0.90;;;;;;;1.90;67.42;101136.63;6027312;29;20614;-71
2021/04/23 03:51:03;;;;;;;1.00;0.90;;;;;;;2.19;67.06;101209.91;6027386;29;20351;-71
2021/04/23 03:54:08;;;;;;;0.97;0.90;;;;;;;2.27;66.58;101201.91;6027257;29;20486;-71
2021/04/23 03:57:13;;;;;;;0.87;0.87;;;;;;;2.33;66.55;101212.06;6027239;29;20368;-71
2021/04/23 04:00:23;;;;;;;0.80;0.80;;;;;;;2.24;66.60;101204.91;6028304;29;20195;-71
2021/04/23 04:03:28;;;;;;;1.17;1.00;;;;;;;2.35;66.51;101207.38;6027983;29;20236;-73
2021/04/23 04:06:31;;;;;;;0.83;0.83;;;;;;;2.48;66.20;101215.91;6027977;29;20288;-71
2021/04/23 04:09:34;;;;;;;0.90;0.90;;;;;;;2.31;66.49;101214.03;6027798;29;20206;-70
2021/04/23 04:12:42;;;;;;;1.53;0.80;;;;;;;2.23;66.47;101218.53;6027917;29;20270;-71
2021/04/23 04:15:46;;;;;;;4.70;0.97;;;;;;;2.36;66.75;101214.44;6027838;29;20245;-71
2021/04/23 04:18:49;;;;;;;1.47;0.80;;;;;;;2.35;65.92;101220.84;6027733;29;20191;-72
2021/04/23 04:21:53;;;;;;;1.67;0.70;;;;;;;2.38;66.33;101236.69;6028044;29;20258;-71
2021/04/23 04:24:57;;;;;;;2.13;1.17;;;;;;;2.28;66.20;101230.53;6027825;29;20215;-71
2021/04/23 04:28:01;;;;;;;0.83;0.73;;;;;;;2.26;66.82;101227.13;6027550;29;20240;-71
2021/04/23 04:31:04;;;;;;;0.80;0.80;;;;;;;2.29;66.26;101228.66;6026348;29;20199;-71
2021/04/23 04:34:22;;;;;;;3.33;0.80;;;;;;;2.49;66.61;101236.44;6026365;29;20483;-71
2021/04/23 04:37:26;;;;;;;1.07;0.90;;;;;;;2.38;65.91;101234.00;6026334;29;20492;-70
2021/04/23 04:40:30;;;;;;;0.90;0.90;;;;;;;2.16;65.82;101198.59;6026340;29;20483;-71
2021/04/23 04:43:34;;;;;;;1.77;0.90;;;;;;;2.47;65.28;101234.88;6027401;29;20226;-70
2021/04/23 04:46:37;;;;;;;2.20;0.90;;;;;;;2.33;66.13;101222.84;6027211;29;20226;-72
2021/04/23 04:49:41;;;;;;;1.13;0.90;;;;;;;2.54;65.36;101241.38;6026955;29;20195;-71
2021/04/23 04:52:44;;;;;;;4.00;0.80;;;;;;;2.74;65.17;101236.63;6027229;29;20193;-71
2021/04/23 04:55:49;;;;;;;1.83;0.73;;;;;;;2.71;64.94;101234.25;6025772;29;20299;-71
2021/04/23 04:58:53;;;;;;;2.23;0.90;;;;;;;2.79;64.63;101239.72;6026671;29;20197;-71
2021/04/23 05:01:56;;;;;;;1.40;0.70;;;;;;;2.70;64.42;101236.09;6026761;29;20193;-71
2021/04/23 05:04:59;;;;;;;5.33;0.90;;;;;;;2.78;64.75;101246.09;6026642;29;20243;-72
2021/04/23 05:08:04;;;;;;;0.97;0.97;;;;;;;2.79;64.24;101253.19;6026814;29;20243;-71
2021/04/23 05:11:07;;;;;;;1.17;0.87;;;;;;;2.81;65.00;101248.47;6025504;29;20193;-71
2021/04/23 05:14:12;;;;;;;0.73;0.73;;;;;;;2.77;64.78;101260.59;6026359;29;20193;-72
2021/04/23 05:17:16;;;;;;;0.90;0.90;;;;;;;2.84;65.22;101249.00;6026118;29;20271;-71
2021/04/23 05:20:20;;;;;;;1.73;0.83;;;;;;;2.93;64.51;101260.69;6026059;29;20255;-71
2021/04/23 05:23:23;;;;;;;2.47;0.80;;;;;;;3.03;64.06;101264.16;6025229;29;20192;-71
2021/04/23 05:26:27;;;;;;;1.03;0.80;;;;;;;2.99;64.45;101262.75;6025572;29;20256;-70
2021/04/23 05:29:30;;;;;;;1.60;0.90;;;;;;;3.02;63.97;101257.06;6025446;29;20231;-71
2021/04/23 05:32:34;;;;;;;1.00;1.00;;;;;;;3.03;62.91;101264.16;6026207;29;20192;-73
2021/04/23 05:35:39;;;;;;;1.53;1.00;;;;;;;3.13;63.84;101281.06;6026279;29;20217;-72
2021/04/23 05:38:42;;;;;;;2.07;1.00;;;;;;;3.19;64.14;101275.03;6026007;29;20198;-72
2021/04/23 05:41:46;;;;;;;2.60;0.98;;;;;;;3.44;63.60;101274.16;6025075;29;20820;-72
2021/04/23 05:44:50;;;;;;;1.13;0.90;;;;;;;3.59;62.49;101277.97;6025256;29;20201;-73
2021/04/23 05:47:55;;;;;;;1.37;0.90;;;;;;;3.58;62.32;101259.22;6024952;29;20218;-72
2021/04/23 05:50:58;;;;;;;2.87;1.07;;;;;;;3.60;62.99;101274.25;6025299;29;20194;-73
2021/04/23 05:54:01;;;;;;;0.80;0.80;;;;;;;3.73;62.54;101296.22;6025472;29;20251;-72
2021/04/23 05:57:05;;;;;;;1.23;0.90;;;;;;;3.55;62.25;101284.69;6024158;29;20362;-72
2021/04/23 06:00:14;;;;;;;1.53;1.10;;;;;;;3.58;62.48;101287.06;6025397;29;20194;-72
2021/04/23 06:03:21;;;;;;;4.63;0.90;;;;;;;3.59;62.30;101287.91;6024980;29;20317;-72
2021/04/23 06:06:24;;;;;;;0.77;0.70;;;;;;;3.64;62.42;101313.41;6024531;29;20522;-71
2021/04/23 06:09:28;;;;;;;5.03;1.67;;;;;;;3.65;62.46;101304.28;6025393;29;20198;-72
2021/04/23 06:12:31;;;;;;;2.43;0.80;;;;;;;3.75;62.51;101294.22;6023926;29;20551;-71
2021/04/23 06:15:35;;;;;;;3.20;0.80;;;;;;;3.72;62.18;101316.13;6007913;29;20467;-72
2021/04/23 06:18:39;;;;;;;3.40;0.80;;;;;;;3.75;62.02;101294.22;6024427;29;20518;-72
2021/04/23 06:21:42;;;;;;;7.70;1.10;;;;;;;3.91;62.11;101293.44;6024081;29;20564;-71
2021/04/23 06:24:45;;;;;;;1.10;1.10;;;;;;;4.05;61.85;101321.69;6024035;29;20557;-71
2021/04/23 06:27:50;;;;;;;0.77;0.77;;;;;;;4.26;61.44;101324.78;6023767;29;20553;-72
2021/04/23 06:30:55;;;;;;;4.27;0.90;;;;;;;4.29;61.46;101319.88;6025137;29;20226;-72
2021/04/23 06:33:58;;;;;;;2.20;0.90;;;;;;;4.28;61.71;101328.16;6023446;29;20259;-72
2021/04/23 06:37:04;;;;;;;0.80;0.80;;;;;;;4.52;61.25;101330.91;6025837;29;20227;-72
2021/04/23 06:40:10;;;;;;;1.13;0.87;;;;;;;4.57;61.09;101312.34;6029498;29;20192;-72
2021/04/23 06:43:13;;;;;;;5.23;0.80;;;;;;;4.66;60.50;101337.53;6028959;29;20205;-72
2021/04/23 06:46:18;;;;;;;2.40;0.80;;;;;;;4.48;60.42;101340.38;6028480;29;20199;-72
2021/04/23 06:49:23;;;;;;;0.93;0.87;;;;;;;4.55;60.97;101360.31;6029101;29;20195;-72
2021/04/23 06:52:26;;;;;;;2.17;1.17;;;;;;;4.60;60.06;101341.75;6029077;29;20199;-72
2021/04/23 06:55:32;;;;;;;5.80;0.90;;;;;;;4.56;60.96;101353.06;6029240;29;20260;-72
2021/04/23 06:58:35;;;;;;;1.40;0.90;;;;;;;4.71;59.96;101346.00;6029303;29;20197;-72
2021/04/23 07:01:39;;;;;;;1.37;0.90;;;;;;;4.92;59.60;101352.63;6029373;29;20193;-73
2021/04/23 07:04:42;;;;;;;2.17;1.07;;;;;;;4.97;59.64;101344.84;6029106;29;20264;-73
2021/04/23 07:07:46;;;;;;;4.23;1.00;;;;;;;4.50;60.59;101259.13;6028784;29;20277;-73
2021/04/23 07:10:50;;;;;;;1.10;1.10;;;;;;;5.06;59.78;101346.53;6029555;29;20192;-72
2021/04/23 07:13:53;;;;;;;4.17;1.30;;;;;;;5.00;59.79;101368.84;6028273;29;20241;-73
2021/04/23 07:16:58;;;;;;;4.43;1.47;;;;;;;5.24;59.73;101370.69;6029136;29;20208;-72
2021/04/23 07:20:03;;;;;;;2.73;1.20;;;;;;;4.86;61.01;101374.06;6028096;29;20535;-72
2021/04/23 07:23:08;;;;;;;1.03;1.03;;;;;;;4.83;60.36;101372.53;6027877;29;20507;-71
2021/04/23 07:26:11;;;;;;;5.00;1.20;;;;;;;5.00;60.45;101395.91;6028026;29;20255;-72
2021/04/23 07:29:15;;;;;;;3.53;1.10;;;;;;;5.19;59.75;101377.66;6029054;29;20192;-75
2021/04/23 07:32:19;;;;;;;4.43;1.23;;;;;;;5.13;60.53;101389.13;6027751;29;20424;-73
2021/04/23 07:35:23;;;;;;;3.27;1.60;;;;;;;5.25;61.06;101395.88;6028778;29;20198;-73
2021/04/23 07:38:26;;;;;;;1.70;1.30;;;;;;;5.22;62.12;101396.22;6027603;29;20232;-73
2021/04/23 07:41:30;;;;;;;3.13;1.37;;;;;;;5.10;60.25;101397.59;6028504;29;20259;-73
2021/04/23 07:44:33;;;;;;;1.67;1.00;;;;;;;5.35;61.27;101394.72;6027429;29;20483;-73
2021/04/23 07:47:38;;;;;;;8.63;2.03;;;;;;;5.54;60.70;101393.53;6027774;29;20221;-72
2021/04/23 07:50:41;;;;;;;4.20;1.50;;;;;;;5.51;60.37;101396.56;6027579;29;20192;-73
2021/04/23 07:53:44;;;;;;;1.70;1.07;;;;;;;5.53;59.06;101405.34;6027004;29;20195;-72
2021/04/23 07:56:48;;;;;;;0.97;0.97;;;;;;;5.61;58.03;101399.94;6027131;29;20229;-72
2021/04/23 07:59:53;;;;;;;1.20;1.20;;;;;;;5.69;58.51;101408.03;6027813;29;20201;-71
2021/04/23 08:02:56;;;;;;;1.20;1.10;;;;;;;5.52;59.21;101400.97;6027515;29;20097;-72
2021/04/23 08:06:01;;;;;;;1.00;1.00;;;;;;;5.39;59.45;101390.63;6026547;29;20229;-72
2021/04/23 08:09:24;;;;;;;1.30;1.20;;;;;;;5.36;59.15;101428.03;6027463;29;20195;-72
2021/04/23 08:12:27;;;;;;;1.20;1.00;;;;;;;5.47;59.57;101406.06;6027861;29;20594;-72
2021/04/23 08:15:30;;;;;;;1.33;1.20;;;;;;;5.54;59.30;101417.88;6027530;29;20206;-71
2021/04/23 08:18:40;;;;;;;1.10;1.10;;;;;;;5.68;57.10;101419.88;6026321;29;20394;-72
2021/04/23 08:21:43;;;;;;;2.70;1.30;;;;;;;5.71;57.65;101422.25;6027279;29;20225;-72
2021/04/23 08:24:46;;;;;;;1.17;1.17;;;;;;;5.66;55.96;101435.47;6026679;29;20200;-72
2021/04/23 08:27:50;;;;;;;2.27;1.33;;;;;;;5.73;55.74;101427.50;6027382;29;20248;-72
2021/04/23 08:30:53;;;;;;;1.47;1.00;;;;;;;5.80;54.11;101421.25;6026204;29;20236;-72
2021/04/23 08:33:58;;;;;;;1.40;1.13;;;;;;;5.82;53.45;101421.06;6027253;29;20198;-72
2021/04/23 08:37:01;;;;;;;1.53;1.53;;;;;;;5.92;54.20;101430.72;6027264;29;20298;-72
2021/04/23 08:40:07;;;;;;;1.37;1.20;;;;;;;6.07;54.07;101428.97;6027335;29;20202;-73
2021/04/23 08:43:13;;;;;;;4.63;0.80;;;;;;;5.98;53.16;101443.59;6027040;29;20202;-73
2021/04/23 08:46:16;;;;;;;1.00;1.00;;;;;;;5.96;53.19;101437.47;6027002;29;20201;-73
2021/04/23 08:49:22;;;;;;;2.30;1.20;;;;;;;5.84;52.19;101444.22;6026660;29;20432;-72
2021/04/23 08:52:28;;;;;;;3.97;1.50;;;;;;;5.87;52.46;101443.94;6026025;29;20497;-72
2021/04/23 08:55:32;;;;;;;1.03;1.00;;;;;;;5.84;51.96;101446.94;6026525;29;20195;-72
2021/04/23 08:58:46;;;;;;;0.97;0.97;;;;;;;5.97;51.74;101441.03;6026368;29;20199;-72
2021/04/23 09:01:49;;;;;;;0.97;0.97;;;;;;;6.10;52.45;101449.47;6024681;29;20201;-72
2021/04/23 09:04:53;;;;;;;0.93;0.93;;;;;;;6.30;50.61;101439.91;6025999;29;20300;-72
2021/04/23 09:08:01;;;;;;;4.37;1.10;;;;;;;5.98;47.87;101451.72;6025505;29;20230;-73
2021/04/23 09:11:18;;;;;;;1.20;1.13;;;;;;;5.92;47.33;101409.06;6026596;29;20233;-72
2021/04/23 09:14:26;;;;;;;1.27;1.20;;;;;;;6.32;47.76;101457.69;6008526;29;20290;-73
2021/04/23 09:17:30;;;;;;;1.00;1.00;;;;;;;6.21;46.50;101463.47;6025991;29;20231;-72
2021/04/23 09:20:34;;;;;;;3.27;0.80;;;;;;;6.26;47.06;101444.84;6025855;29;20193;-72
2021/04/23 09:23:46;;;;;;;1.10;1.10;;;;;;;6.32;47.54;101448.72;6026085;29;20198;-72
2021/04/23 09:26:51;;;;;;;2.53;1.10;;;;;;;6.45;47.15;101459.00;6024879;29;20193;-72
2021/04/23 09:29:57;;;;;;;2.40;1.07;;;;;;;6.38;46.92;101466.13;6025865;29;20353;-72
2021/04/23 09:33:02;;;;;;;0.87;0.87;;;;;;;6.08;47.81;101408.16;6025782;29;20210;-72
2021/04/23 09:36:07;;;;;;;1.70;0.90;;;;;;;6.39;47.38;101475.97;6025096;29;20206;-72
2021/04/23 09:39:12;;;;;;;5.63;1.00;;;;;;;6.32;47.55;101460.41;6024999;29;20198;-72
2021/04/23 09:42:15;;;;;;;3.70;1.43;;;;;;;6.43;47.25;101493.56;6025348;29;20225;-72
2021/04/23 09:45:20;;;;;;;3.20;1.10;;;;;;;6.42;45.93;101502.75;6025410;29;20217;-72
2021/04/23 09:48:25;;;;;;;0.90;0.90;;;;;;;6.34;45.22;101472.94;6025255;29;20226;-72
2021/04/23 09:51:35;;;;;;;2.67;0.93;;;;;;;6.37;44.86;101472.59;6025438;29;20230;-72
2021/04/23 09:54:38;;;;;;;1.90;0.90;;;;;;;6.48;43.69;101480.34;6025465;29;20233;-72
2021/04/23 09:57:49;;;;;;;1.03;0.90;;;;;;;6.56;43.54;101483.03;6023962;29;20546;-72
2021/04/23 10:00:57;;;;;;;2.70;1.00;;;;;;;6.47;43.28;101462.41;6025068;29;20287;-72
2021/04/23 10:04:19;;;;;;;2.57;0.90;;;;;;;6.86;41.70;101482.19;6024708;29;20323;-73
2021/04/23 10:07:25;;;;;;;0.97;0.97;;;;;;;6.97;41.63;101508.09;6025418;29;20286;-73
2021/04/23 10:10:29;;;;;;;8.87;1.00;;;;;;;6.82;42.73;101489.00;6024710;29;20320;-73
2021/04/23 10:13:34;;;;;;;1.40;1.17;;;;;;;6.55;41.84;101475.94;6024986;29;20243;-72
2021/04/23 10:16:37;;;;;;;2.57;1.30;;;;;;;6.59;42.69;101504.38;6025354;29;20191;-72
2021/04/23 10:19:40;;;;;;;1.20;0.80;;;;;;;6.40;41.55;101510.16;6024763;29;20221;-72
2021/04/23 10:22:44;;;;;;;3.13;0.97;;;;;;;6.44;41.19;101523.22;6025058;29;20201;-72
2021/04/23 10:25:48;;;;;;;1.00;1.00;;;;;;;6.57;41.64;101491.00;6024869;29;20239;-72
2021/04/23 10:28:52;;;;;;;7.30;1.00;;;;;;;6.66;40.31;101494.50;6024896;29;20215;-72
2021/04/23 10:31:55;;;;;;;1.00;1.00;;;;;;;6.94;41.90;101490.31;6024771;29;20230;-72
2021/04/23 10:34:59;;;;;;;1.00;1.00;;;;;;;7.14;41.02;101504.28;6023780;29;20482;-73
2021/04/23 10:38:06;;;;;;;1.00;1.00;;;;;;;7.27;40.67;101499.94;6024906;29;20222;-73
2021/04/23 10:41:11;;;;;;;0.83;0.80;;;;;;;7.06;41.27;101551.28;6023552;29;20477;-73
2021/04/23 10:44:16;;;;;;;0.97;0.87;;;;;;;6.72;42.69;101521.78;6023458;29;20350;-73
2021/04/23 10:47:32;;;;;;;1.10;1.10;;;;;;;6.86;44.76;101533.75;6024305;29;20195;-73
2021/04/23 10:50:40;;;;;;;7.90;1.27;;;;;;;6.54;44.04;101480.50;6024645;29;20241;-72
2021/04/23 10:53:46;;;;;;;1.27;0.90;;;;;;;7.45;42.78;101524.94;6026387;29;20195;-72
2021/04/23 10:56:53;;;;;;;1.10;1.10;;;;;;;7.25;42.59;101526.44;6024335;29;20255;-71
2021/04/23 10:59:57;;;;;;;1.73;0.90;;;;;;;7.34;43.26;101538.09;6024104;29;20231;-71
2021/04/23 11:03:23;;;;;;;0.80;0.80;;;;;;;7.20;43.03;101531.53;6023651;29;20270;-71
2021/04/23 11:06:30;;;;;;;2.40;1.03;;;;;;;7.43;42.92;101527.00;6025110;29;20201;-71
2021/04/23 11:09:34;;;;;;;0.80;0.80;;;;;;;7.36;41.26;101526.03;6024681;29;20271;-71
2021/04/23 11:12:38;;;;;;;0.70;0.70;;;;;;;7.40;41.14;101526.50;6023578;29;20484;-71
2021/04/23 11:15:41;;;;;;;0.93;0.93;;;;;;;7.49;39.39;101537.16;6024901;29;20271;-71
2021/04/23 11:18:44;;;;;;;4.07;0.90;;;;;;;7.68;39.57;101535.78;6024559;29;20196;-71
2021/04/23 11:21:49;;;;;;;3.63;0.90;;;;;;;7.72;38.46;101536.28;6024697;29;20255;-71
2021/04/23 11:25:13;;;;;;;2.20;0.90;;;;;;;7.59;37.87;101536.91;6027916;29;20208;-71
2021/04/23 11:28:16;;;;;;;0.80;0.80;;;;;;;7.56;38.44;101540.81;6027418;29;20557;-71
2021/04/23 11:31:20;;;;;;;9.60;0.80;;;;;;;7.63;39.84;101538.22;6027673;29;20255;-71
2021/04/23 11:34:33;;;;;;;1.80;0.90;;;;;;;7.16;39.07;101573.66;6027720;29;20478;-71
2021/04/23 11:37:50;;;;;;;1.37;0.90;;;;;;;7.25;39.84;101566.28;6027463;29;20546;-72
2021/04/23 11:41:11;;;;;;;0.93;0.90;;;;;;;7.39;39.65;101551.97;6028559;29;20200;-72
2021/04/23 11:44:39;;;;;;;6.40;0.80;;;;;;;7.19;40.18;101556.97;6028276;29;20241;-72
2021/04/23 11:47:45;;;;;;;0.70;0.70;;;;;;;7.34;38.61;101576.94;6027173;29;20417;-73
2021/04/23 11:50:48;;;;;;;1.27;0.80;;;;;;;7.32;38.21;101562.69;6028466;29;20192;-72
2021/04/23 11:53:51;;;;;;;0.80;0.80;;;;;;;7.40;37.29;101562.63;6027059;29;20387;-72
2021/04/23 11:56:56;;;;;;;0.70;0.70;;;;;;;7.35;36.98;101551.47;6027048;29;20527;-72
2021/04/23 12:00:02;;;;;;;4.07;0.80;;;;;;;7.08;36.57;101543.84;6026993;29;20235;-72
2021/04/23 12:03:10;;;;;;;2.83;0.80;;;;;;;7.27;36.82;101565.09;6027520;29;20314;-72
2021/04/23 12:06:13;;;;;;;2.90;0.90;;;;;;;7.43;37.26;101573.16;6028231;29;20211;-72
2021/04/23 12:09:20;;;;;;;0.90;0.90;;;;;;;7.40;36.84;101570.78;6027595;29;20223;-72
2021/04/23 12:12:31;;;;;;;0.95;0.95;;;;;;;7.60;36.93;101582.03;6027981;29;20251;-72
2021/04/23 12:15:36;;;;;;;0.90;0.90;;;;;;;7.39;36.13;101590.81;6026943;29;20258;-72
2021/04/23 12:18:43;;;;;;;0.70;0.70;;;;;;;7.36;36.04;101574.91;6026652;29;20536;-72
2021/04/23 12:21:54;;;;;;;5.28;0.93;;;;;;;7.37;36.27;101592.84;6027716;29;20199;-72
2021/04/23 12:25:22;;;;;;;3.97;0.70;;;;;;;7.49;36.46;101596.88;6009822;29;20214;-71
2021/04/23 12:28:35;;;;;;;1.75;0.80;;;;;;;7.55;36.22;101579.84;6026286;29;20543;-71
2021/04/23 12:31:40;;;;;;;0.88;0.88;;;;;;;7.54;35.93;101583.59;6027424;29;20192;-73
2021/04/23 12:34:45;;;;;;;0.93;0.93;;;;;;;7.62;36.46;101585.44;6026144;29;20196;-71
2021/04/23 12:37:48;;;;;;;0.90;0.90;;;;;;;7.85;36.30;101590.88;6027307;29;20199;-71
2021/04/23 12:40:51;;;;;;;1.75;1.05;;;;;;;7.72;35.19;101590.63;6025922;29;20492;-71
2021/04/23 12:43:57;;;;;;;2.33;1.00;;;;;;;7.85;35.29;101599.00;6025813;29;20256;-71
2021/04/23 12:47:01;;;;;;;0.90;0.90;;;;;;;7.57;34.53;101560.69;6026878;29;20240;-72
2021/04/23 12:50:05;;;;;;;1.00;1.00;;;;;;;7.85;34.12;101601.72;6027007;29;20330;-72
2021/04/23 12:53:10;;;;;;;0.90;0.90;;;;;;;7.78;34.59;101592.63;6025651;29;20554;-72
2021/04/23 12:56:13;;;;;;;1.27;1.23;;;;;;;8.04;34.65;101582.22;6026342;29;20202;-72
2021/04/23 12:59:44;;;;;;;2.53;1.02;;;;;;;8.08;35.18;101599.84;6025809;29;20461;-72
2021/04/23 13:02:57;;;;;;;5.03;3.27;;;;;;;7.83;36.00;101598.34;6025087;29;20206;-71
2021/04/23 13:06:00;;;;;;;0.90;0.90;;;;;;;7.83;36.09;101614.66;6026126;29;20192;-72
2021/04/23 13:09:06;;;;;;;1.30;0.80;;;;;;;7.68;36.77;101613.75;6026223;29;20226;-72
2021/04/23 13:12:21;;;;;;;3.65;0.95;;;;;;;7.77;36.36;101613.50;6026088;29;20192;-72
2021/04/23 13:15:28;;;;;;;1.27;1.17;;;;;;;7.84;35.99;101632.63;6026527;29;20195;-72
2021/04/23 13:18:31;;;;;;;0.95;0.95;;;;;;;7.92;36.17;101608.13;6025098;29;20377;-72
2021/04/23 13:21:35;;;;;;;1.02;1.02;;;;;;;7.86;35.89;101619.72;6025736;29;20199;-72
2021/04/23 13:24:38;;;;;;;1.70;0.80;;;;;;;7.84;36.35;101605.47;6026195;29;20232;-71
2021/04/23 13:27:43;;;;;;;1.27;0.80;;;;;;;7.79;35.30;101613.31;6025446;29;20523;-72
2021/04/23 13:30:52;;;;;;;0.80;0.80;;;;;;;7.71;35.41;101629.66;6024734;29;20415;-73
2021/04/23 13:34:03;;;;;;;1.98;0.98;;;;;;;7.61;35.43;101620.88;6025823;29;20199;-73
2021/04/23 13:37:06;;;;;;;2.20;0.73;;;;;;;7.75;36.29;101617.44;6024773;29;20483;-72
2021/04/23 13:40:10;;;;;;;0.98;0.98;;;;;;;7.72;35.92;101609.63;6025755;29;20195;-72
2021/04/23 13:43:16;;;;;;;0.85;0.85;;;;;;;7.88;36.49;101629.41;6025572;29;20192;-72
2021/04/23 13:46:21;;;;;;;0.90;0.90;;;;;;;7.99;36.45;101625.38;6025086;29;20236;-72
2021/04/23 13:49:28;;;;;;;5.17;1.00;;;;;;;8.13;35.51;101621.91;6024767;29;20226;-72
2021/04/23 13:52:41;;;;;;;2.83;0.90;;;;;;;7.93;35.35;101631.56;6025817;29;20192;-72
2021/04/23 13:55:59;;;;;;;0.90;0.90;;;;;;;8.08;35.57;101629.75;6025509;29;20192;-71
2021/04/23 13:59:06;;;;;;;0.77;0.77;;;;;;;8.05;34.01;101630.09;6024100;29;20204;-72
2021/04/23 14:02:15;;;;;;;0.80;0.80;;;;;;;8.13;35.59;101627.34;6024251;29;20399;-72
2021/04/23 14:05:19;;;;;;;1.02;0.93;;;;;;;8.08;34.84;101624.31;6024081;29;20307;-72
2021/04/23 14:08:22;;;;;;;0.80;0.80;;;;;;;7.86;34.76;101587.09;6025433;29;20195;-71
2021/04/23 14:11:26;;;;;;;1.75;0.80;;;;;;;8.08;34.94;101629.75;6025484;29;20223;-72
2021/04/23 14:14:32;;;;;;;4.13;0.88;;;;;;;8.25;35.49;101625.88;6025230;29;20191;-72
2021/04/23 14:17:36;;;;;;;1.08;1.08;;;;;;;8.23;35.99;101627.94;6024806;29;20217;-72
2021/04/23 14:20:40;;;;;;;0.90;0.90;;;;;;;8.13;34.42;101632.78;6023991;29;20260;-73
2021/04/23 14:23:43;;;;;;;0.98;0.98;;;;;;;7.95;35.01;101634.94;6024086;29;20196;-71
2021/04/23 14:26:47;;;;;;;0.98;0.85;;;;;;;8.13;35.31;101627.34;6025065;29;20203;-71
2021/04/23 14:29:51;;;;;;;5.78;3.65;;;;;;;8.00;35.30;101632.53;6024781;29;20283;-72
2021/04/23 14:32:55;;;;;;;3.17;1.10;;;;;;;8.05;35.66;101635.53;6024913;29;20199;-71
2021/04/23 14:35:58;;;;;;;0.93;0.82;;;;;;;7.98;34.33;101635.44;6023660;29;20356;-72